Time;durP1;ratioP1;P1;durP2;ratioP2;P2;SDS_P1;SDS_P2;PMS_P1;PMS_P2;Temp;Humidity;BMP_temperature;BMP_pressure;BME280_temperature;BME280_humidity;BME280_pressure;Samples;Min_cycle;Max_cycle;Signal;HPM_P1;HPM_P2
2023/06/18 00:00:57;;;;;;;17.40;15.75;;;;;;;16.22;100.00;94706.47;4957033;28;20232;-65
2023/06/18 00:03:25;;;;;;;15.95;14.57;;;;;;;16.21;100.00;94712.50;4955826;28;20322;-64
2023/06/18 00:05:53;;;;;;;17.88;16.20;;;;;;;16.22;100.00;94709.03;4947488;28;20291;-63
2023/06/18 00:08:19;;;;;;;17.80;15.90;;;;;;;16.16;100.00;94709.41;4956190;28;20771;-64
2023/06/18 00:10:46;;;;;;;18.30;16.70;;;;;;;16.08;100.00;94711.63;4950988;28;20799;-64
2023/06/18 00:13:14;;;;;;;17.13;15.63;;;;;;;16.20;100.00;94707.47;4954238;28;20208;-63
2023/06/18 00:15:41;;;;;;;17.40;15.75;;;;;;;16.29;99.99;94710.31;4963962;28;20629;-63
2023/06/18 00:18:08;;;;;;;17.27;15.73;;;;;;;16.34;99.79;94710.81;4963133;28;20294;-64
2023/06/18 00:20:34;;;;;;;17.25;15.75;;;;;;;16.35;99.59;94711.66;4962900;28;20226;-65
2023/06/18 00:23:02;;;;;;;17.42;15.98;;;;;;;16.39;99.38;94712.28;4958047;28;20320;-61
2023/06/18 00:25:29;;;;;;;30.48;16.92;;;;;;;16.31;99.74;94708.47;4966238;28;20289;-65
2023/06/18 00:27:55;;;;;;;19.10;17.10;;;;;;;16.32;99.83;94706.75;4963528;28;20366;-64
2023/06/18 00:30:24;;;;;;;21.15;16.85;;;;;;;16.32;99.91;94707.56;4964393;28;20290;-65
2023/06/18 00:32:51;;;;;;;17.92;16.48;;;;;;;16.31;100.00;94713.59;4963613;28;20647;-65
2023/06/18 00:35:17;;;;;;;18.58;16.70;;;;;;;16.33;100.00;94710.94;4964018;28;20212;-64
2023/06/18 00:37:44;;;;;;;18.48;16.58;;;;;;;16.36;100.00;94715.03;4969422;28;20200;-65
2023/06/18 00:40:12;;;;;;;18.45;16.85;;;;;;;16.38;99.90;94708.91;4966648;28;20725;-65
2023/06/18 00:42:40;;;;;;;19.65;17.65;;;;;;;16.27;100.00;94709.56;4964234;28;20232;-65
2023/06/18 00:45:09;;;;;;;18.92;17.15;;;;;;;16.25;100.00;94705.44;4962994;28;20206;-66
2023/06/18 00:47:37;;;;;;;25.83;18.02;;;;;;;16.36;100.00;94713.28;4970509;28;20204;-65
2023/06/18 00:50:05;;;;;;;18.55;16.83;;;;;;;16.44;99.64;94705.97;4965265;28;20218;-65
2023/06/18 00:52:35;;;;;;;19.30;17.50;;;;;;;16.41;99.64;94703.59;4961037;28;20227;-65
2023/06/18 00:55:03;;;;;;;20.58;18.42;;;;;;;16.39;100.00;94705.41;4960244;28;20290;-65
2023/06/18 00:57:31;;;;;;;19.58;17.60;;;;;;;16.31;100.00;94700.78;4961531;28;22945;-64
2023/06/18 00:59:57;;;;;;;19.95;18.05;;;;;;;16.30;100.00;94699.13;4966116;28;20300;-66
2023/06/18 01:02:25;;;;;;;21.30;18.55;;;;;;;16.12;100.00;94677.16;4958831;28;20220;-66
2023/06/18 01:04:55;;;;;;;21.08;18.95;;;;;;;16.27;100.00;94701.88;4959596;28;21233;-65
2023/06/18 01:07:22;;;;;;;21.42;19.25;;;;;;;16.26;100.00;94704.53;4958601;28;20212;-64
2023/06/18 01:09:53;;;;;;;21.27;19.15;;;;;;;16.24;100.00;94711.50;4956248;28;20673;-63
2023/06/18 01:12:21;;;;;;;20.80;18.58;;;;;;;16.18;100.00;94705.00;4960231;28;20199;-63
2023/06/18 01:14:50;;;;;;;19.70;17.70;;;;;;;16.26;100.00;94709.66;4965879;28;20212;-64
2023/06/18 01:17:19;;;;;;;21.13;19.02;;;;;;;16.26;100.00;94705.38;4963075;28;20212;-64
2023/06/18 01:19:49;;;;;;;21.88;19.67;;;;;;;16.26;100.00;94702.81;4966360;28;20201;-65
2023/06/18 01:22:26;;;;;;;22.30;19.40;;;;;;;16.24;100.00;94702.06;4968153;28;20616;-65
2023/06/18 01:24:57;;;;;;;21.73;19.58;;;;;;;16.28;100.00;94705.28;4969389;28;20223;-66
2023/06/18 01:27:25;;;;;;;20.77;18.77;;;;;;;16.31;100.00;94705.91;4967829;28;20258;-65
2023/06/18 01:29:52;;;;;;;21.90;19.70;;;;;;;16.16;100.00;94709.41;4966188;28;20208;-65
2023/06/18 01:32:20;;;;;;;22.67;20.52;;;;;;;16.18;100.00;94707.56;4968983;28;20241;-65
2023/06/18 01:34:47;;;;;;;22.67;20.67;;;;;;;16.21;100.00;94709.94;4966995;28;20231;-65
2023/06/18 01:37:25;;;;;;;23.10;20.83;;;;;;;16.24;100.00;94707.19;4973196;28;22017;-65
2023/06/18 01:39:57;;;;;;;22.90;20.50;;;;;;;16.22;100.00;94703.06;4971397;28;20337;-65
2023/06/18 01:42:28;;;;;;;22.58;20.35;;;;;;;16.19;100.00;94708.38;4969589;28;20334;-64
2023/06/18 01:45:03;;;;;;;23.42;21.10;;;;;;;16.23;100.00;94713.25;4968045;28;20231;-65
2023/06/18 01:47:31;;;;;;;21.80;19.80;;;;;;;16.24;100.00;94706.38;4968560;28;20214;-64
2023/06/18 01:50:01;;;;;;;23.42;21.05;;;;;;;16.24;100.00;94696.94;4971112;28;20344;-64
2023/06/18 01:52:33;;;;;;;21.48;19.50;;;;;;;16.21;100.00;94702.25;4970402;28;20247;-66
2023/06/18 01:55:03;;;;;;;22.52;20.45;;;;;;;16.19;100.00;94706.66;4969086;28;20204;-65
2023/06/18 01:57:31;;;;;;;22.48;20.30;;;;;;;16.19;100.00;94709.22;4970449;28;20216;-65
2023/06/18 01:59:58;;;;;;;21.85;19.50;;;;;;;16.19;100.00;94704.09;4966844;28;20394;-65
2023/06/18 02:02:26;;;;;;;21.80;19.63;;;;;;;16.16;100.00;94711.97;4969402;28;20278;-65
2023/06/18 02:04:52;;;;;;;22.60;20.35;;;;;;;16.23;100.00;94715.81;4969914;28;20653;-65
2023/06/18 02:07:19;;;;;;;21.42;19.42;;;;;;;16.25;100.00;94713.16;4970677;28;20290;-66
2023/06/18 02:09:46;;;;;;;23.27;20.92;;;;;;;16.28;100.00;94718.09;4967975;28;20215;-65
2023/06/18 02:12:14;;;;;;;21.70;19.50;;;;;;;16.28;100.00;94713.78;4969046;28;20732;-65
2023/06/18 02:14:41;;;;;;;24.83;22.27;;;;;;;16.19;100.00;94713.50;4969047;28;21067;-65
2023/06/18 02:17:07;;;;;;;22.25;20.25;;;;;;;16.27;100.00;94712.13;4968998;28;20640;-64
2023/06/18 02:19:34;;;;;;;21.08;19.08;;;;;;;16.27;100.00;94722.41;4969977;28;20214;-65
2023/06/18 02:22:01;;;;;;;22.45;20.10;;;;;;;16.24;100.00;94716.63;4968619;28;20355;-65
2023/06/18 02:24:27;;;;;;;21.38;19.48;;;;;;;16.30;100.00;94716.25;4968957;28;20217;-65
2023/06/18 02:26:54;;;;;;;24.52;20.88;;;;;;;16.33;100.00;94716.88;4968210;28;20370;-65
2023/06/18 02:29:22;;;;;;;22.05;19.42;;;;;;;16.21;100.00;94712.50;4968661;28;20909;-66
2023/06/18 02:31:49;;;;;;;23.02;20.60;;;;;;;16.14;100.00;94715.53;4967809;28;20326;-67
2023/06/18 02:34:18;;;;;;;23.35;21.00;;;;;;;16.23;100.00;94713.25;4968062;28;20357;-65
2023/06/18 02:36:45;;;;;;;24.40;20.55;;;;;;;16.16;100.00;94709.41;4967590;28;20737;-65
2023/06/18 02:39:11;;;;;;;24.30;21.80;;;;;;;16.29;100.00;94723.13;4967650;28;20212;-65
2023/06/18 02:41:38;;;;;;;23.17;20.88;;;;;;;16.26;100.00;94722.50;4968718;28;20224;-66
2023/06/18 02:44:05;;;;;;;24.30;22.02;;;;;;;16.33;100.00;94724.56;4969599;28;20216;-65
2023/06/18 02:46:33;;;;;;;25.73;22.27;;;;;;;16.37;100.00;94724.38;4968540;28;20208;-65
2023/06/18 02:49:00;;;;;;;25.35;22.48;;;;;;;16.37;100.00;94729.50;4969385;28;20237;-65
2023/06/18 02:51:26;;;;;;;24.65;21.92;;;;;;;16.36;100.00;94726.13;4967882;28;20220;-66
2023/06/18 02:53:53;;;;;;;22.02;19.77;;;;;;;16.32;100.00;94730.63;4969466;28;20245;-65
2023/06/18 02:56:21;;;;;;;22.55;20.38;;;;;;;16.32;100.00;94734.94;4968311;28;20232;-68
2023/06/18 02:58:55;;;;;;;23.50;21.10;;;;;;;16.30;100.00;94729.91;4968948;28;20205;-65
2023/06/18 03:01:23;;;;;;;22.85;20.73;;;;;;;16.29;100.00;94735.94;4969092;28;20232;-66
2023/06/18 03:03:51;;;;;;;22.90;20.73;;;;;;;16.29;100.00;94738.50;4970299;28;20211;-65
2023/06/18 03:06:18;;;;;;;22.30;19.90;;;;;;;16.37;100.00;94737.19;4969448;28;20207;-64
2023/06/18 03:08:46;;;;;;;23.25;20.98;;;;;;;16.41;100.00;94739.50;4968947;28;20219;-63
2023/06/18 03:11:13;;;;;;;22.70;20.30;;;;;;;16.49;100.00;94734.72;4967417;28;20204;-65
2023/06/18 03:13:39;;;;;;;22.23;20.10;;;;;;;16.46;100.00;94734.09;4969248;28;20208;-64
2023/06/18 03:16:06;;;;;;;22.05;19.95;;;;;;;16.40;100.00;94731.88;4969955;28;20208;-65
2023/06/18 03:18:33;;;;;;;22.27;20.00;;;;;;;16.40;100.00;94737.00;4968693;28;20650;-64
2023/06/18 03:21:02;;;;;;;23.63;21.33;;;;;;;16.31;100.00;94735.84;4967310;28;20626;-65
2023/06/18 03:23:28;;;;;;;22.45;20.15;;;;;;;16.41;100.00;94734.34;4969290;28;20239;-65
2023/06/18 03:25:55;;;;;;;24.30;21.25;;;;;;;16.43;100.00;94734.25;4969001;28;20789;-65
2023/06/18 03:28:22;;;;;;;21.90;19.98;;;;;;;16.48;100.00;94737.38;4969361;28;20204;-65
2023/06/18 03:30:49;;;;;;;22.55;20.15;;;;;;;16.46;100.00;94736.66;4968543;28;20204;-65
2023/06/18 03:33:17;;;;;;;22.65;20.55;;;;;;;16.41;100.00;94734.34;4967480;28;20625;-66
2023/06/18 03:35:46;;;;;;;22.80;20.45;;;;;;;16.40;100.00;94742.16;4968729;28;20802;-65
2023/06/18 03:38:15;;;;;;;22.27;20.27;;;;;;;16.41;100.00;94739.50;4967728;28;20212;-65
2023/06/18 03:40:41;;;;;;;21.50;19.27;;;;;;;16.44;100.00;94744.44;4967893;28;20208;-66
2023/06/18 03:43:08;;;;;;;21.77;19.67;;;;;;;16.51;100.00;94737.19;4968414;28;20232;-65
2023/06/18 03:45:35;;;;;;;22.02;19.77;;;;;;;16.52;100.00;94743.97;4968065;28;20214;-65
2023/06/18 03:48:02;;;;;;;22.20;19.65;;;;;;;16.51;100.00;94735.44;4967661;28;20334;-66
2023/06/18 03:50:28;;;;;;;22.65;20.40;;;;;;;16.63;100.00;94744.13;4967539;28;20295;-65
2023/06/18 03:52:55;;;;;;;24.17;21.92;;;;;;;16.64;100.00;94738.91;4968643;28;20232;-65
2023/06/18 03:55:23;;;;;;;20.92;19.02;;;;;;;16.80;99.68;94750.81;4969354;28;20204;-65
2023/06/18 03:57:50;;;;;;;22.73;19.90;;;;;;;16.83;99.36;94748.84;4968490;28;20309;-66
2023/06/18 04:00:17;;;;;;;22.38;20.35;;;;;;;16.73;99.49;94734.97;4967197;28;20212;-64
2023/06/18 04:02:43;;;;;;;21.15;19.10;;;;;;;16.79;99.21;94750.00;4967351;28;20224;-65
2023/06/18 04:05:10;;;;;;;21.73;19.48;;;;;;;16.79;99.63;94755.13;4968749;28;20295;-66
2023/06/18 04:07:37;;;;;;;23.90;19.85;;;;;;;16.86;99.36;94752.97;4967731;28;20209;-67
2023/06/18 04:10:04;;;;;;;23.17;20.92;;;;;;;16.86;99.49;94753.78;4966871;28;20259;-66
2023/06/18 04:12:32;;;;;;;22.35;20.30;;;;;;;16.86;99.80;94756.34;4968707;28;20197;-67
2023/06/18 04:14:59;;;;;;;22.05;19.55;;;;;;;16.88;99.63;94764.78;4967893;28;20496;-65
2023/06/18 04:17:26;;;;;;;21.67;19.33;;;;;;;16.91;99.46;94762.03;4969024;28;20262;-66
2023/06/18 04:19:53;;;;;;;21.38;19.48;;;;;;;17.03;99.01;94757.88;4966723;28;20208;-66
2023/06/18 04:22:20;;;;;;;21.55;19.67;;;;;;;17.08;98.59;94755.00;4967957;28;20695;-67
2023/06/18 04:24:47;;;;;;;21.65;19.33;;;;;;;17.17;98.20;94760.38;4968480;28;20200;-66
2023/06/18 04:27:14;;;;;;;21.90;19.70;;;;;;;17.21;97.97;94756.69;4966142;28;20358;-65
2023/06/18 04:29:42;;;;;;;20.55;18.42;;;;;;;17.35;97.38;94764.31;4965956;28;20796;-64
2023/06/18 04:32:09;;;;;;;21.85;19.85;;;;;;;17.43;96.56;94761.25;4966011;28;20666;-65
2023/06/18 04:34:36;;;;;;;21.52;19.42;;;;;;;17.48;96.65;94764.38;4967838;28;20204;-65
2023/06/18 04:37:02;;;;;;;21.10;19.17;;;;;;;17.50;96.48;94762.53;4966940;28;20200;-64
2023/06/18 04:39:29;;;;;;;22.08;19.95;;;;;;;17.53;97.06;94767.47;4966148;28;20618;-64
2023/06/18 04:41:56;;;;;;;21.70;19.70;;;;;;;17.53;97.02;94771.78;4966664;28;20208;-65
2023/06/18 04:44:22;;;;;;;21.63;19.75;;;;;;;17.55;96.16;94778.47;4968008;28;20351;-65
2023/06/18 04:46:50;;;;;;;22.85;20.55;;;;;;;17.56;96.46;94776.72;4968244;28;20212;-65
2023/06/18 04:49:17;;;;;;;21.88;19.77;;;;;;;17.60;95.81;94771.25;4967219;28;20323;-65
2023/06/18 04:51:44;;;;;;;22.02;19.80;;;;;;;17.62;96.19;94778.88;4966491;28;20318;-66
2023/06/18 04:54:11;;;;;;;23.98;21.75;;;;;;;17.71;95.74;94780.06;4967701;28;20228;-66
2023/06/18 04:56:38;;;;;;;22.40;20.27;;;;;;;17.80;95.59;94784.59;4967257;28;20331;-66
2023/06/18 04:59:06;;;;;;;22.17;20.23;;;;;;;17.88;94.91;94784.88;4967313;28;20213;-65
2023/06/18 05:01:33;;;;;;;22.23;20.20;;;;;;;17.99;92.95;94790.16;4966586;28;20204;-66
2023/06/18 05:04:01;;;;;;;21.27;19.35;;;;;;;18.02;92.51;94785.63;4966776;28;20286;-66
2023/06/18 05:06:27;;;;;;;23.05;20.77;;;;;;;18.00;92.71;94807.22;4966355;28;20347;-66
2023/06/18 05:08:54;;;;;;;21.63;19.63;;;;;;;17.91;93.50;94802.69;4966279;28;20303;-66
2023/06/18 05:11:21;;;;;;;20.92;18.80;;;;;;;17.94;94.14;94807.63;4969365;28;20216;-66
2023/06/18 05:13:47;;;;;;;20.83;18.83;;;;;;;17.89;93.94;94814.81;4971169;28;20212;-66
2023/06/18 05:16:14;;;;;;;22.67;20.27;;;;;;;17.91;93.80;94813.78;4971119;28;20228;-65
2023/06/18 05:18:41;;;;;;;21.05;19.02;;;;;;;17.87;94.25;94812.34;4972690;28;20626;-66
2023/06/18 05:21:09;;;;;;;21.20;19.20;;;;;;;17.78;94.69;94817.28;4971540;28;20244;-64
2023/06/18 05:23:36;;;;;;;21.98;19.85;;;;;;;17.78;94.96;94818.09;4975057;28;20326;-64
2023/06/18 05:26:03;;;;;;;20.58;18.45;;;;;;;17.82;94.19;94823.84;4973073;28;20208;-66
2023/06/18 05:28:30;;;;;;;20.40;18.55;;;;;;;17.64;95.06;94815.56;4971159;28;20231;-65
2023/06/18 05:30:56;;;;;;;21.70;19.33;;;;;;;17.80;94.94;94820.59;4970597;28;20192;-66
2023/06/18 05:33:23;;;;;;;22.50;20.30;;;;;;;17.80;94.62;94829.13;4970325;28;20312;-66
2023/06/18 05:35:50;;;;;;;20.67;18.88;;;;;;;17.72;95.40;94833.91;4971021;28;20217;-65
2023/06/18 05:38:18;;;;;;;20.15;18.35;;;;;;;17.84;94.62;94832.28;4970748;28;20232;-66
2023/06/18 05:40:44;;;;;;;21.13;19.02;;;;;;;17.77;94.61;94828.50;4970819;28;20269;-65
2023/06/18 05:43:11;;;;;;;20.15;18.30;;;;;;;17.79;94.92;94834.34;4970530;28;20366;-64
2023/06/18 05:45:38;;;;;;;21.48;19.55;;;;;;;17.77;95.04;94836.19;4971022;28;20670;-65
2023/06/18 05:48:08;;;;;;;20.85;18.88;;;;;;;17.83;94.97;94846.88;4969792;28;20271;-65
2023/06/18 05:50:34;;;;;;;20.20;18.40;;;;;;;17.91;94.83;94847.22;4970509;28;20585;-65
2023/06/18 05:53:01;;;;;;;20.77;18.92;;;;;;;17.96;94.74;94846.91;4969743;28;20715;-65
2023/06/18 05:55:29;;;;;;;21.48;19.55;;;;;;;18.02;94.64;94852.50;4970468;28;20710;-64
2023/06/18 05:57:56;;;;;;;20.33;18.65;;;;;;;18.17;93.76;94855.78;4970330;28;20213;-64
2023/06/18 06:00:22;;;;;;;20.20;18.40;;;;;;;18.10;93.83;94859.66;4971138;28;20701;-65
2023/06/18 06:02:49;;;;;;;21.42;19.40;;;;;;;18.16;93.34;94864.41;4969696;28;20228;-64
2023/06/18 06:05:16;;;;;;;22.42;19.45;;;;;;;18.15;93.19;94855.06;4969490;28;20343;-64
2023/06/18 06:07:43;;;;;;;19.70;17.63;;;;;;;18.16;93.61;94861.84;4970265;28;20212;-65
2023/06/18 06:10:10;;;;;;;21.75;19.65;;;;;;;18.28;93.19;94860.22;4966897;28;20294;-64
2023/06/18 06:12:38;;;;;;;19.70;17.90;;;;;;;18.32;92.11;94865.03;4969718;28;20678;-64
2023/06/18 06:15:06;;;;;;;18.65;17.10;;;;;;;18.36;91.19;94869.06;4970423;28;20351;-65
2023/06/18 06:17:32;;;;;;;19.48;17.48;;;;;;;18.24;92.42;94863.91;4969331;28;21686;-65
2023/06/18 06:19:59;;;;;;;18.83;17.05;;;;;;;18.38;92.10;94870.69;4969959;28;20740;-65
2023/06/18 06:22:26;;;;;;;18.05;16.55;;;;;;;18.39;91.65;94870.59;4970278;28;20761;-64
2023/06/18 06:24:52;;;;;;;17.45;15.73;;;;;;;18.48;90.75;94875.13;4968591;28;20214;-64
2023/06/18 06:27:19;;;;;;;17.83;16.02;;;;;;;18.64;90.36;94874.94;4969032;28;20299;-64
2023/06/18 06:29:47;;;;;;;20.00;18.15;;;;;;;18.70;90.27;94874.53;4965036;28;20359;-64
2023/06/18 06:32:14;;;;;;;20.70;18.50;;;;;;;18.93;88.52;94876.34;4967877;28;20263;-65
2023/06/18 06:34:41;;;;;;;17.80;16.10;;;;;;;19.08;87.41;94889.09;4967275;28;20212;-64
2023/06/18 06:37:08;;;;;;;18.88;17.05;;;;;;;19.24;87.01;94881.94;4968373;28;20217;-63
2023/06/18 06:39:34;;;;;;;18.23;16.40;;;;;;;19.38;86.79;94884.34;4968416;28;20384;-66
2023/06/18 06:42:02;;;;;;;22.98;19.05;;;;;;;19.61;84.68;94893.88;4967407;28;20235;-66
2023/06/18 06:44:29;;;;;;;19.38;17.52;;;;;;;19.76;84.00;94893.72;4969410;28;20228;-66
2023/06/18 06:46:57;;;;;;;17.42;15.82;;;;;;;19.96;83.79;94891.34;4969603;28;20289;-67
2023/06/18 06:49:23;;;;;;;18.02;15.05;;;;;;;20.15;83.49;94892.56;4969474;28;20825;-64
2023/06/18 06:51:55;;;;;;;15.60;14.10;;;;;;;20.37;82.82;94901.22;4968701;28;21048;-64
2023/06/18 06:54:21;;;;;;;13.85;12.60;;;;;;;20.60;81.63;94903.84;4968532;28;20300;-63
2023/06/18 06:56:48;;;;;;;15.90;14.38;;;;;;;20.75;79.48;94907.84;4968967;28;20222;-65
2023/06/18 06:59:15;;;;;;;15.70;14.30;;;;;;;20.76;79.56;94904.34;4968271;28;22454;-65
2023/06/18 07:01:42;;;;;;;14.57;13.43;;;;;;;20.90;78.84;94911.84;4969093;28;20212;-65
2023/06/18 07:04:11;;;;;;;13.68;12.45;;;;;;;20.86;79.11;94910.41;4970212;28;20725;-65
2023/06/18 07:06:39;;;;;;;14.32;13.23;;;;;;;20.91;79.48;94913.47;4967794;28;20290;-67
2023/06/18 07:09:06;;;;;;;14.25;12.95;;;;;;;20.86;79.11;94918.16;4970463;28;20209;-64
2023/06/18 07:11:36;;;;;;;17.40;13.90;;;;;;;20.75;80.66;94918.19;4969083;28;20203;-65
2023/06/18 07:14:03;;;;;;;13.80;12.50;;;;;;;20.74;80.80;94913.97;4968856;28;20201;-65
2023/06/18 07:16:29;;;;;;;14.13;13.02;;;;;;;21.01;79.13;94918.78;4969047;28;20609;-64
2023/06/18 07:18:56;;;;;;;14.52;13.18;;;;;;;21.23;78.34;94920.56;4969071;28;20200;-65
2023/06/18 07:21:24;;;;;;;13.18;12.05;;;;;;;21.34;76.34;94911.00;4968103;28;20268;-65
2023/06/18 07:23:51;;;;;;;18.90;16.80;;;;;;;21.57;75.81;94921.31;4967728;28;20804;-66
2023/06/18 07:26:18;;;;;;;22.17;19.90;;;;;;;21.67;75.91;94923.06;4969524;28;20236;-64
2023/06/18 07:28:44;;;;;;;15.43;13.93;;;;;;;21.76;74.54;94924.09;4968942;28;20236;-65
2023/06/18 07:31:11;;;;;;;13.75;12.63;;;;;;;21.56;74.78;94923.06;4968132;28;20204;-65
2023/06/18 07:33:38;;;;;;;20.83;17.65;;;;;;;21.25;75.75;94919.50;4969004;28;20305;-64
2023/06/18 07:36:05;;;;;;;17.70;16.10;;;;;;;21.00;76.90;94922.31;4967869;28;20208;-65
2023/06/18 07:38:33;;;;;;;13.50;12.32;;;;;;;20.86;76.59;94920.75;4968561;28;20358;-63
2023/06/18 07:41:00;;;;;;;15.38;12.95;;;;;;;20.62;77.93;94922.59;4969442;28;20231;-64
2023/06/18 07:43:26;;;;;;;13.30;12.10;;;;;;;20.45;78.54;94926.47;4969925;28;20238;-64
2023/06/18 07:45:53;;;;;;;13.43;12.32;;;;;;;20.43;78.96;94922.34;4968472;28;20295;-64
2023/06/18 07:48:20;;;;;;;12.30;11.30;;;;;;;20.38;78.67;94931.25;4968408;28;20239;-66
2023/06/18 07:50:46;;;;;;;13.13;11.88;;;;;;;20.25;79.51;94930.50;4967746;28;20306;-66
2023/06/18 07:53:13;;;;;;;13.77;12.52;;;;;;;20.15;79.69;94923.53;4969230;28;20211;-66
2023/06/18 07:55:41;;;;;;;11.05;10.25;;;;;;;20.10;80.10;94925.63;4968801;28;20335;-65
2023/06/18 07:58:08;;;;;;;12.30;11.32;;;;;;;20.00;79.88;94935.81;4968825;28;20223;-66
2023/06/18 08:00:34;;;;;;;27.27;20.02;;;;;;;19.87;81.01;94935.03;4967331;28;20305;-65
2023/06/18 08:03:01;;;;;;;21.48;16.20;;;;;;;19.78;81.78;94933.13;4969357;28;20315;-66
2023/06/18 08:05:28;;;;;;;14.23;13.02;;;;;;;19.80;81.81;94938.97;4968353;28;20220;-66
2023/06/18 08:07:54;;;;;;;12.45;11.45;;;;;;;19.73;82.08;94942.94;4970649;28;20204;-66
2023/06/18 08:10:21;;;;;;;19.42;16.75;;;;;;;19.83;81.39;94949.06;4964946;28;20215;-69
2023/06/18 08:12:50;;;;;;;48.40;32.17;;;;;;;19.76;81.72;94942.72;4968281;28;20223;-66
2023/06/18 08:15:16;;;;;;;23.35;18.23;;;;;;;19.78;81.93;94946.84;4969731;28;20216;-66
2023/06/18 08:17:43;;;;;;;23.30;17.42;;;;;;;19.87;82.22;94963.38;4965735;28;20299;-66
2023/06/18 08:20:10;;;;;;;31.27;23.35;;;;;;;19.84;82.29;94955.88;4971177;28;20214;-64
2023/06/18 08:22:37;;;;;;;15.68;14.10;;;;;;;19.90;82.09;94955.44;4968337;28;20340;-64
2023/06/18 08:25:06;;;;;;;14.05;12.55;;;;;;;19.95;81.93;94961.09;4968329;28;21025;-66
2023/06/18 08:27:34;;;;;;;11.88;10.57;;;;;;;20.06;81.38;94961.13;4969900;28;20883;-67
2023/06/18 08:30:03;;;;;;;14.93;13.63;;;;;;;20.26;81.07;94960.53;4970772;28;20277;-66
2023/06/18 08:32:30;;;;;;;23.42;16.55;;;;;;;20.44;80.70;94960.13;4969662;28;20208;-65
2023/06/18 08:34:57;;;;;;;17.88;16.00;;;;;;;20.67;79.82;94972.16;4971944;28;20239;-65
2023/06/18 08:37:23;;;;;;;14.27;12.88;;;;;;;20.92;78.71;94966.78;4971552;28;20212;-65
2023/06/18 08:39:50;;;;;;;12.45;11.27;;;;;;;21.12;78.08;94975.59;4970266;28;20571;-66
2023/06/18 08:42:21;;;;;;;12.90;11.57;;;;;;;21.28;76.82;94972.72;4969900;28;20213;-66
2023/06/18 08:44:50;;;;;;;11.57;10.75;;;;;;;21.51;75.53;94979.53;4969158;28;20774;-67
2023/06/18 08:47:18;;;;;;;11.68;10.57;;;;;;;21.68;74.40;94971.25;4970684;28;20637;-66
2023/06/18 08:49:48;;;;;;;10.10;8.88;;;;;;;22.00;72.46;94978.25;4970541;28;20207;-67
2023/06/18 08:52:19;;;;;;;11.77;10.65;;;;;;;22.27;70.35;94978.63;4968996;28;20251;-66
2023/06/18 08:54:51;;;;;;;9.93;8.98;;;;;;;22.45;69.54;94978.09;4968010;28;20205;-64
2023/06/18 08:57:27;;;;;;;9.73;8.93;;;;;;;22.70;68.60;94981.13;4971395;28;20208;-66
2023/06/18 08:59:55;;;;;;;9.75;8.95;;;;;;;23.08;67.13;94965.00;4972344;28;20717;-65
2023/06/18 09:02:24;;;;;;;9.93;8.95;;;;;;;23.58;66.28;94978.03;4974727;28;20303;-66
2023/06/18 09:04:52;;;;;;;10.07;9.30;;;;;;;23.59;65.46;94978.88;4973117;28;20271;-68
2023/06/18 09:07:20;;;;;;;9.82;9.07;;;;;;;23.35;67.12;94976.56;4973387;28;20216;-65
2023/06/18 09:09:47;;;;;;;10.02;9.32;;;;;;;23.31;67.05;94985.56;4974869;28;20252;-65
2023/06/18 09:12:14;;;;;;;10.63;9.73;;;;;;;23.31;67.33;94986.38;4972760;28;20200;-66
2023/06/18 09:14:41;;;;;;;9.52;8.93;;;;;;;23.29;67.64;94983.09;4973335;28;20196;-65
2023/06/18 09:17:07;;;;;;;9.65;8.80;;;;;;;23.20;67.70;94983.06;4974599;28;20370;-65
2023/06/18 09:19:35;;;;;;;10.73;9.02;;;;;;;23.22;67.97;94978.56;4971830;28;20335;-67
2023/06/18 09:22:13;;;;;;;9.27;8.55;;;;;;;23.34;68.08;94970.56;4975504;28;20334;-69
2023/06/18 09:24:39;;;;;;;10.18;9.40;;;;;;;23.71;66.53;94976.03;4976037;28;20224;-66
2023/06/18 09:27:07;;;;;;;11.18;10.35;;;;;;;24.11;65.66;94977.72;4971924;28;20211;-68
2023/06/18 09:29:35;;;;;;;27.25;18.48;;;;;;;24.91;63.71;94974.03;4960173;28;20208;-64
2023/06/18 09:32:07;;;;;;;19.90;16.95;;;;;;;25.61;60.04;94973.50;4960794;28;20212;-70
2023/06/18 09:34:35;;;;;;;27.45;21.35;;;;;;;25.81;59.17;94976.84;4966279;28;20287;-67
2023/06/18 09:37:04;;;;;;;16.33;14.63;;;;;;;25.82;58.80;94969.88;4971412;28;20221;-70
2023/06/18 09:39:32;;;;;;;14.60;13.20;;;;;;;25.69;58.87;94973.66;4970371;28;20803;-76
2023/06/18 09:42:05;;;;;;;13.57;12.25;;;;;;;25.26;60.15;94945.59;4969105;28;20295;-69
2023/06/18 09:44:31;;;;;;;13.07;11.80;;;;;;;25.14;60.58;94974.53;4969120;28;20541;-67
2023/06/18 09:46:59;;;;;;;32.47;26.90;;;;;;;24.93;61.30;94969.50;4969131;28;20234;-73
2023/06/18 09:49:27;;;;;;;20.83;18.73;;;;;;;24.64;62.37;94967.78;4968379;28;20207;-72
2023/06/18 09:51:55;;;;;;;11.07;10.05;;;;;;;24.38;63.34;94972.72;4962701;28;20228;-75
2023/06/18 09:54:23;;;;;;;11.00;10.23;;;;;;;24.27;63.49;94965.06;4900687;28;20208;-77
2023/06/18 09:56:58;;;;;;;10.98;9.60;;;;;;;24.33;62.94;94968.88;4912423;28;20204;-64
2023/06/18 09:59:25;;;;;;;9.15;8.43;;;;;;;24.42;62.76;94968.91;4917108;28;20204;-74
2023/06/18 10:01:52;;;;;;;9.73;8.77;;;;;;;24.36;62.73;94943.47;4915999;28;20213;-71
2023/06/18 10:04:19;;;;;;;8.30;7.53;;;;;;;24.49;62.60;94970.94;4912322;28;20270;-68
2023/06/18 10:06:51;;;;;;;9.13;8.55;;;;;;;24.47;63.12;94972.88;4906390;28;20867;-69
2023/06/18 10:09:20;;;;;;;7.80;7.25;;;;;;;24.46;63.38;94966.84;4908577;28;20208;-72
2023/06/18 10:11:49;;;;;;;9.45;8.90;;;;;;;24.50;62.98;94967.41;4908817;28;20219;-65
2023/06/18 10:14:20;;;;;;;8.52;8.00;;;;;;;24.54;62.32;94971.34;4910590;28;20406;-64
2023/06/18 10:16:51;;;;;;;9.13;7.30;;;;;;;24.42;62.13;94966.31;4911953;28;20359;-65
2023/06/18 10:19:24;;;;;;;10.38;7.80;;;;;;;24.56;62.00;94964.22;4914755;28;20208;-64
2023/06/18 10:21:57;;;;;;;7.22;6.82;;;;;;;24.83;61.24;94971.28;4916093;28;20294;-66
2023/06/18 10:24:31;;;;;;;8.80;7.40;;;;;;;25.04;60.44;94966.75;4927709;28;20717;-67
2023/06/18 10:26:58;;;;;;;7.13;6.63;;;;;;;25.22;59.86;94966.84;4916214;28;20989;-64
2023/06/18 10:29:25;;;;;;;8.00;7.50;;;;;;;25.38;59.63;94961.84;4916528;28;20234;-66
2023/06/18 10:31:52;;;;;;;6.90;6.20;;;;;;;25.60;59.19;94956.25;4913686;28;20294;-64
2023/06/18 10:34:20;;;;;;;14.40;12.05;;;;;;;25.65;59.26;94956.69;4914946;28;20295;-64
2023/06/18 10:36:47;;;;;;;8.93;8.13;;;;;;;25.57;59.20;94953.13;4913563;28;20280;-67
2023/06/18 10:39:14;;;;;;;7.45;6.95;;;;;;;25.40;59.78;94955.53;4949680;28;20226;-69
2023/06/18 10:41:46;;;;;;;6.85;6.45;;;;;;;25.31;60.56;94952.97;4962337;28;20342;-67
2023/06/18 10:44:13;;;;;;;7.35;6.65;;;;;;;25.16;60.60;94951.81;4961744;28;20320;-66
2023/06/18 10:46:39;;;;;;;8.07;7.18;;;;;;;24.84;61.08;94947.75;4965074;28;20722;-65
2023/06/18 10:49:14;;;;;;;6.57;6.15;;;;;;;24.51;61.60;94941.25;4962390;28;20769;-65
2023/06/18 10:51:41;;;;;;;6.82;6.43;;;;;;;24.25;63.26;94938.41;4963489;28;20918;-66
2023/06/18 10:54:29;;;;;;;6.07;5.75;;;;;;;24.00;64.06;94947.53;4963401;28;20197;-67
2023/06/18 10:56:59;;;;;;;7.40;6.90;;;;;;;23.85;64.40;94942.88;4962693;28;20211;-67
2023/06/18 10:59:35;;;;;;;7.20;6.78;;;;;;;23.67;64.65;94925.38;4962906;28;20200;-65
2023/06/18 11:02:01;;;;;;;7.78;7.18;;;;;;;23.78;65.55;94944.34;4964093;28;20234;-67
2023/06/18 11:04:31;;;;;;;7.13;6.53;;;;;;;23.79;65.13;94938.22;4962633;28;20278;-67
2023/06/18 11:07:13;;;;;;;6.75;6.38;;;;;;;23.74;65.91;94936.88;4962545;28;20250;-67
2023/06/18 11:09:47;;;;;;;7.22;6.70;;;;;;;23.63;65.99;94938.75;4962862;28;20240;-65
2023/06/18 11:12:21;;;;;;;7.07;6.47;;;;;;;23.50;66.78;94941.56;4962455;28;20747;-65
2023/06/18 11:15:21;;;;;;;7.13;6.72;;;;;;;23.37;67.26;94943.53;4963411;28;20571;-65
2023/06/18 11:17:50;;;;;;;7.30;6.75;;;;;;;23.29;67.69;94939.00;4901760;28;20381;-67
2023/06/18 11:20:18;;;;;;;7.00;6.40;;;;;;;23.24;67.68;94942.97;4900824;28;20807;-67